createdAt,value
2017-06-14T00:00:58.215Z,9.55
2017-06-14T00:01:58.187Z,9.53
2017-06-14T00:02:57.533Z,9.56
2017-06-14T00:03:58.599Z,9.48
2017-06-14T00:04:58.440Z,9.48
2017-06-14T00:05:57.859Z,9.5
2017-06-14T00:06:57.824Z,9.48
2017-06-14T00:07:58.003Z,9.48
2017-06-14T00:08:57.805Z,9.5
2017-06-14T00:09:57.795Z,9.47
2017-06-14T00:10:58.112Z,9.45
2017-06-14T00:11:58.118Z,9.37
2017-06-14T00:12:58.167Z,9.44
2017-06-14T00:13:58.086Z,9.44
2017-06-14T00:14:58.092Z,9.39
2017-06-14T00:15:57.743Z,9.29
2017-06-14T00:16:57.417Z,9.29
2017-06-14T00:17:58.164Z,9.34
2017-06-14T00:18:57.722Z,9.32
2017-06-14T00:19:58.060Z,9.27
2017-06-14T00:20:58.719Z,9.23
2017-06-14T00:21:58.051Z,9.17
2017-06-14T00:22:57.690Z,9.19
2017-06-14T00:23:57.687Z,9.16
2017-06-14T00:24:58.060Z,9.21
2017-06-14T00:25:58.387Z,9.21
2017-06-14T00:26:57.662Z,9.21
2017-06-14T00:27:57.974Z,9.26
2017-06-14T00:28:57.948Z,9.21
2017-06-14T00:29:57.621Z,9.26
2017-06-14T00:30:57.290Z,9.29
2017-06-14T00:31:57.618Z,9.21
2017-06-14T00:32:57.276Z,9.26
2017-06-14T00:33:57.922Z,9.3
2017-06-14T00:34:57.581Z,9.27
2017-06-14T00:35:57.255Z,9.16
2017-06-14T00:36:57.883Z,9.21
2017-06-14T00:37:57.869Z,9.17
2017-06-14T00:38:57.865Z,9.21
2017-06-14T00:39:57.546Z,9.21
2017-06-14T00:40:57.205Z,9.19
2017-06-14T00:41:57.841Z,9.21
2017-06-14T00:42:57.506Z,9.17
2017-06-14T00:43:57.495Z,9.14
2017-06-14T00:44:57.488Z,9.09
2017-06-14T00:45:57.156Z,9.11
2017-06-14T00:46:57.145Z,9.09
2017-06-14T00:47:57.462Z,9.08
2017-06-14T00:48:57.452Z,9.12
2017-06-14T00:49:57.445Z,9.12
2017-06-14T00:50:57.115Z,9.08
2017-06-14T00:51:57.140Z,9.03
2017-06-14T00:52:57.096Z,9.08
2017-06-14T00:53:57.408Z,9
2017-06-14T00:54:57.075Z,9.03
2017-06-14T00:55:57.724Z,9.01
2017-06-14T00:56:57.708Z,9.11
2017-06-14T00:57:57.370Z,9.09
2017-06-14T00:58:57.691Z,9.03
2017-06-14T00:59:57.356Z,9
2017-06-14T01:00:57.344Z,9.05
2017-06-14T01:01:57.693Z,9.09
2017-06-14T01:02:57.606Z,9
2017-06-14T01:03:57.612Z,9.08
2017-06-14T01:04:57.596Z,9
2017-06-14T01:05:57.262Z,9.03
2017-06-14T01:06:56.940Z,9.01
2017-06-14T01:07:57.241Z,8.97
2017-06-14T01:08:57.569Z,9.04
2017-06-14T01:09:57.550Z,9.04
2017-06-14T01:10:57.215Z,9.03
2017-06-14T01:11:57.523Z,9.04
2017-06-14T01:12:57.208Z,9
2017-06-14T01:13:57.192Z,9.17
2017-06-14T01:14:57.507Z,9.08
2017-06-14T01:15:56.859Z,9.11
2017-06-14T01:16:56.865Z,9.09
2017-06-14T01:17:57.156Z,9.09
2017-06-14T01:18:57.162Z,9.03
2017-06-14T01:19:57.464Z,9.09
2017-06-14T01:20:57.124Z,9.03
2017-06-14T01:21:56.820Z,9.08
2017-06-14T01:22:57.109Z,8.97
2017-06-14T01:23:57.440Z,9.05
2017-06-14T01:24:57.089Z,9.05
2017-06-14T01:25:57.392Z,9
2017-06-14T01:26:57.407Z,9
2017-06-14T01:27:57.376Z,9.03
2017-06-14T01:28:57.370Z,9.01
2017-06-14T01:29:57.043Z,8.94
2017-06-14T01:30:57.032Z,8.9
2017-06-14T01:31:57.025Z,9
2017-06-14T01:32:57.342Z,8.98
2017-06-14T01:33:57.355Z,8.82
2017-06-14T01:34:57.010Z,8.83
2017-06-14T01:35:56.675Z,8.79
2017-06-14T01:36:57.291Z,8.9
2017-06-14T01:37:57.283Z,8.97
2017-06-14T01:38:57.280Z,8.92
2017-06-14T01:39:56.971Z,8.95
2017-06-14T01:40:56.944Z,8.94
2017-06-14T01:41:56.620Z,8.92
2017-06-14T01:42:57.260Z,8.77
2017-06-14T01:43:57.226Z,8.89
2017-06-14T01:44:56.903Z,8.9
2017-06-14T01:45:56.583Z,8.85
2017-06-14T01:46:57.209Z,8.86
2017-06-14T01:47:57.195Z,8.87
2017-06-14T01:48:57.204Z,8.86
2017-06-14T01:49:56.865Z,8.85
2017-06-14T01:50:56.852Z,8.85
2017-06-14T01:51:57.153Z,8.77
2017-06-14T01:52:56.859Z,8.76
2017-06-14T01:53:57.154Z,8.74
2017-06-14T01:54:57.129Z,8.79
2017-06-14T01:55:56.809Z,8.69
2017-06-14T01:56:56.794Z,8.68
2017-06-14T01:57:56.787Z,8.76
2017-06-14T01:58:57.091Z,8.71
2017-06-14T01:59:57.099Z,8.61
2017-06-14T02:00:57.072Z,8.64
2017-06-14T02:01:57.075Z,8.61
2017-06-14T02:02:57.052Z,8.61
2017-06-14T02:03:57.057Z,8.57
2017-06-14T02:04:56.721Z,8.67
2017-06-14T02:05:57.024Z,8.67
2017-06-14T02:06:56.383Z,8.57
2017-06-14T02:07:57.004Z,8.67
2017-06-14T02:08:56.698Z,8.68
2017-06-14T02:09:56.995Z,8.68
2017-06-14T02:10:56.692Z,8.67
2017-06-14T02:11:56.338Z,8.61
2017-06-14T02:12:56.977Z,8.58
2017-06-14T02:13:56.952Z,8.61
2017-06-14T02:14:56.941Z,8.6
2017-06-14T02:15:56.302Z,8.53
2017-06-14T02:16:56.655Z,8.53
2017-06-14T02:17:56.600Z,8.54
2017-06-14T02:18:56.607Z,8.49
2017-06-14T02:19:56.594Z,8.49
2017-06-14T02:20:56.891Z,8.47
2017-06-14T02:21:56.879Z,8.43
2017-06-14T02:22:56.863Z,8.35
2017-06-14T02:23:56.556Z,8.28
2017-06-14T02:24:56.222Z,8.39
2017-06-14T02:25:56.522Z,8.34
2017-06-14T02:26:56.509Z,8.32
2017-06-14T02:27:56.498Z,8.25
2017-06-14T02:28:56.812Z,8.35
2017-06-14T02:29:56.485Z,8.34
2017-06-14T02:30:56.497Z,8.39
2017-06-14T02:31:56.466Z,8.32
2017-06-14T02:32:56.456Z,8.31
2017-06-14T02:33:56.776Z,8.29
2017-06-14T02:34:56.120Z,8.32
2017-06-14T02:35:56.114Z,8.29
2017-06-14T02:36:56.746Z,8.25
2017-06-14T02:37:56.408Z,8.28
2017-06-14T02:38:56.715Z,8.31
2017-06-14T02:39:56.726Z,8.28
2017-06-14T02:40:56.693Z,8.32
2017-06-14T02:41:56.693Z,8.32
2017-06-14T02:42:56.682Z,8.36
2017-06-14T02:43:56.667Z,8.31
2017-06-14T02:44:56.339Z,8.4
2017-06-14T02:45:56.012Z,8.42
2017-06-14T02:46:56.637Z,8.4
2017-06-14T02:47:56.627Z,8.47
2017-06-14T02:48:56.311Z,8.44
2017-06-14T02:49:56.626Z,8.39
2017-06-14T02:50:56.284Z,8.36
2017-06-14T02:51:56.293Z,8.4
2017-06-14T02:52:56.576Z,8.4
2017-06-14T02:53:56.569Z,8.44
2017-06-14T02:54:56.262Z,8.44
2017-06-14T02:55:56.555Z,8.43
2017-06-14T02:56:56.538Z,8.43
2017-06-14T02:57:56.212Z,8.46
2017-06-14T02:58:56.545Z,8.4
2017-06-14T02:59:56.216Z,8.4
2017-06-14T03:00:56.185Z,8.32
2017-06-14T03:01:56.492Z,8.4
2017-06-14T03:02:56.482Z,8.44
2017-06-14T03:03:56.159Z,8.44
2017-06-14T03:04:55.832Z,8.44
2017-06-14T03:05:56.488Z,8.42
2017-06-14T03:06:55.809Z,8.36
2017-06-14T03:07:56.431Z,8.49
2017-06-14T03:08:56.109Z,8.49
2017-06-14T03:09:56.434Z,8.5
2017-06-14T03:10:56.094Z,8.5
2017-06-14T03:11:55.788Z,8.53
2017-06-14T03:12:56.384Z,8.57
2017-06-14T03:13:56.375Z,8.64
2017-06-14T03:14:56.384Z,8.67
2017-06-14T03:15:55.728Z,8.62
2017-06-14T03:16:56.038Z,8.67
2017-06-14T03:17:56.342Z,8.68
2017-06-14T03:18:56.011Z,8.64
2017-06-14T03:19:56.317Z,8.62
2017-06-14T03:20:55.993Z,8.67
2017-06-14T03:21:56.319Z,8.6
2017-06-14T03:22:55.975Z,8.64
2017-06-14T03:23:56.282Z,8.62
2017-06-14T03:24:55.960Z,8.65
2017-06-14T03:25:55.965Z,8.6
2017-06-14T03:26:56.260Z,8.64
2017-06-14T03:27:55.923Z,8.57
2017-06-14T03:28:55.939Z,8.5
2017-06-14T03:29:56.225Z,8.49
2017-06-14T03:30:55.591Z,8.47
2017-06-14T03:31:55.886Z,8.44
2017-06-14T03:32:56.221Z,8.58
2017-06-14T03:33:55.868Z,8.57
2017-06-14T03:34:56.177Z,8.62
2017-06-14T03:35:56.166Z,8.65
2017-06-14T03:36:55.841Z,8.62
2017-06-14T03:37:56.167Z,8.58
2017-06-14T03:38:55.818Z,8.68
2017-06-14T03:39:55.811Z,8.58
2017-06-14T03:40:56.136Z,8.65
2017-06-14T03:41:55.491Z,8.68
2017-06-14T03:42:55.781Z,8.61
2017-06-14T03:43:55.459Z,8.62
2017-06-14T03:44:55.793Z,8.61
2017-06-14T03:45:56.108Z,8.64
2017-06-14T03:46:56.075Z,8.58
2017-06-14T03:47:55.731Z,8.64
2017-06-14T03:48:55.409Z,8.67
2017-06-14T03:49:56.031Z,8.77
2017-06-14T03:50:56.035Z,8.77
2017-06-14T03:51:56.046Z,8.69
2017-06-14T03:52:56.001Z,8.82
2017-06-14T03:53:56.014Z,8.72
2017-06-14T03:54:55.668Z,8.89
2017-06-14T03:55:55.659Z,8.8
2017-06-14T03:56:55.964Z,8.83
2017-06-14T03:57:55.323Z,8.98
2017-06-14T03:58:55.629Z,8.94
2017-06-14T03:59:55.629Z,9
2017-06-14T04:00:55.930Z,9.01
2017-06-14T04:01:55.607Z,8.98
2017-06-14T04:02:55.279Z,8.98
2017-06-14T04:03:55.602Z,9.05
2017-06-14T04:04:55.574Z,9.05
2017-06-14T04:05:55.882Z,9.11
2017-06-14T04:06:55.585Z,9.05
2017-06-14T04:07:55.863Z,9.16
2017-06-14T04:08:55.537Z,9.24
2017-06-14T04:09:55.844Z,9.17
2017-06-14T04:10:55.518Z,9.35
2017-06-14T04:11:55.192Z,9.34
2017-06-14T04:12:55.186Z,9.47
2017-06-14T04:13:55.809Z,9.53
2017-06-14T04:14:55.497Z,9.48
2017-06-14T04:15:55.787Z,9.52
2017-06-14T04:16:55.466Z,9.6
2017-06-14T04:17:55.455Z,9.56
2017-06-14T04:18:55.760Z,9.7
2017-06-14T04:19:55.121Z,9.67
2017-06-14T04:20:55.108Z,9.78
2017-06-14T04:21:55.416Z,9.81
2017-06-14T04:22:55.412Z,9.8
2017-06-14T04:23:55.718Z,9.92
2017-06-14T04:24:55.412Z,9.95
2017-06-14T04:25:55.697Z,9.85
2017-06-14T04:26:55.373Z,9.93
2017-06-14T04:27:55.687Z,10.05
2017-06-14T04:28:55.354Z,10.08
2017-06-14T04:29:55.666Z,9.99
2017-06-14T04:30:55.022Z,10.11
2017-06-14T04:31:55.647Z,10.14
2017-06-14T04:32:55.658Z,10.15
2017-06-14T04:33:55.647Z,10.14
2017-06-14T04:34:54.986Z,10.21
2017-06-14T04:35:55.299Z,10.18
2017-06-14T04:36:55.287Z,10.28
2017-06-14T04:37:54.968Z,10.31
2017-06-14T04:38:55.274Z,10.33
2017-06-14T04:39:54.944Z,10.36
2017-06-14T04:40:55.250Z,10.46
2017-06-14T04:41:55.242Z,10.47
2017-06-14T04:42:55.257Z,10.46
2017-06-14T04:43:55.228Z,10.49
2017-06-14T04:44:55.236Z,10.52
2017-06-14T04:45:55.225Z,10.63
2017-06-14T04:46:55.207Z,10.67
2017-06-14T04:47:55.193Z,10.69
2017-06-14T04:48:55.526Z,10.65
2017-06-14T04:49:55.180Z,10.67
2017-06-14T04:50:54.863Z,10.79
2017-06-14T04:51:54.849Z,10.77
2017-06-14T04:52:55.489Z,10.8
2017-06-14T04:53:55.458Z,10.83
2017-06-14T04:54:55.451Z,10.94
2017-06-14T04:55:54.813Z,10.85
2017-06-14T04:56:55.439Z,10.88
2017-06-14T04:57:55.112Z,10.97
2017-06-14T04:58:55.448Z,11.05
2017-06-14T04:59:55.101Z,11.1
2017-06-14T05:00:55.440Z,11.1
2017-06-14T05:01:55.403Z,11.13
2017-06-14T05:02:55.390Z,11.21
2017-06-14T05:03:55.384Z,11.3
2017-06-14T05:04:55.374Z,11.33
2017-06-14T05:05:55.050Z,11.34
2017-06-14T05:06:54.759Z,11.42
2017-06-14T05:07:55.038Z,11.42
2017-06-14T05:08:55.364Z,11.42
2017-06-14T05:09:55.337Z,11.51
2017-06-14T05:10:55.333Z,11.52
2017-06-14T05:11:55.027Z,11.53
2017-06-14T05:12:55.317Z,11.63
2017-06-14T05:13:55.315Z,11.61
2017-06-14T05:14:55.002Z,11.7
2017-06-14T05:15:54.977Z,11.66
2017-06-14T05:16:55.294Z,11.68
2017-06-14T05:17:54.978Z,11.78
2017-06-14T05:18:54.958Z,11.79
2017-06-14T05:19:55.271Z,11.89
2017-06-14T05:20:54.945Z,11.89
2017-06-14T05:21:54.642Z,11.97
2017-06-14T05:22:54.954Z,12
2017-06-14T05:23:54.925Z,11.95
2017-06-14T05:24:54.915Z,12.07
2017-06-14T05:25:54.590Z,12.08
2017-06-14T05:26:55.217Z,12.16
2017-06-14T05:27:55.210Z,12.19
2017-06-14T05:28:54.918Z,12.2
2017-06-14T05:29:54.884Z,12.25
2017-06-14T05:30:54.892Z,12.29
2017-06-14T05:31:54.548Z,12.37
2017-06-14T05:32:54.543Z,12.29
2017-06-14T05:33:54.853Z,12.28
2017-06-14T05:34:54.847Z,12.4
2017-06-14T05:35:55.152Z,12.47
2017-06-14T05:36:54.829Z,12.48
2017-06-14T05:37:54.828Z,12.59
2017-06-14T05:38:55.153Z,12.69
2017-06-14T05:39:54.500Z,12.8
2017-06-14T05:40:55.128Z,12.89
2017-06-14T05:41:54.800Z,13.01
2017-06-14T05:42:54.795Z,13.01
2017-06-14T05:43:54.790Z,13.06
2017-06-14T05:44:54.782Z,13.03
2017-06-14T05:45:55.089Z,13.06
2017-06-14T05:46:54.771Z,13.13
2017-06-14T05:47:54.785Z,13.09
2017-06-14T05:48:54.849Z,13.16
2017-06-14T05:49:55.097Z,13.13
2017-06-14T05:50:54.762Z,13.11
2017-06-14T05:51:54.737Z,13.27
2017-06-14T05:52:55.046Z,13.24
2017-06-14T05:53:55.052Z,13.29
2017-06-14T05:54:54.401Z,13.25
2017-06-14T05:55:54.726Z,13.4
2017-06-14T05:56:54.712Z,13.36
2017-06-14T05:57:54.977Z,13.4
2017-06-14T05:58:55.031Z,13.44
2017-06-14T05:59:55.079Z,13.45
2017-06-14T06:00:54.400Z,13.42
2017-06-14T06:01:55.040Z,13.45
2017-06-14T06:02:55.039Z,13.45
2017-06-14T06:03:54.719Z,13.48
2017-06-14T06:04:54.412Z,13.5
2017-06-14T06:05:54.703Z,13.45
2017-06-14T06:06:55.035Z,13.51
2017-06-14T06:07:55.017Z,13.53
2017-06-14T06:08:55.072Z,13.55
2017-06-14T06:09:55.018Z,13.58
2017-06-14T06:10:54.983Z,13.65
2017-06-14T06:11:54.978Z,13.7
2017-06-14T06:12:54.989Z,13.83
2017-06-14T06:13:54.976Z,13.83
2017-06-14T06:14:54.663Z,13.94
2017-06-14T06:15:55.046Z,14.05
2017-06-14T06:16:54.984Z,14.05
2017-06-14T06:17:54.658Z,14.06
2017-06-14T06:18:54.621Z,14.09
2017-06-14T06:19:54.760Z,14.09
2017-06-14T06:20:54.628Z,14.16
2017-06-14T06:21:54.946Z,14.16
2017-06-14T06:22:54.761Z,14.26
2017-06-14T06:23:54.976Z,14.24
2017-06-14T06:24:54.307Z,14.3
2017-06-14T06:25:54.961Z,14.38
2017-06-14T06:26:54.263Z,14.41
2017-06-14T06:27:54.901Z,14.39
2017-06-14T06:28:54.607Z,14.51
2017-06-14T06:29:55.017Z,14.52
2017-06-14T06:30:54.579Z,14.53
2017-06-14T06:31:54.554Z,14.7
2017-06-14T06:32:54.551Z,14.67
2017-06-14T06:33:54.548Z,14.83
2017-06-14T06:34:54.566Z,14.95
2017-06-14T06:35:54.351Z,15.05
2017-06-14T06:36:55.017Z,15.23
2017-06-14T06:37:55.022Z,15.4
2017-06-14T06:38:54.208Z,15.92
2017-06-14T06:39:54.843Z,16.3
2017-06-14T06:40:54.519Z,16.81
2017-06-14T06:41:54.854Z,17.15
2017-06-14T06:42:54.333Z,17.2
2017-06-14T06:43:54.676Z,17.22
2017-06-14T06:44:54.970Z,17.1
2017-06-14T06:45:54.499Z,17.05
2017-06-14T06:46:54.502Z,17.05
2017-06-14T06:47:54.509Z,16.95
2017-06-14T06:48:54.468Z,16.7
2017-06-14T06:49:54.557Z,16.44
2017-06-14T06:50:54.596Z,16.32
2017-06-14T06:51:54.910Z,16.26
2017-06-14T06:52:54.478Z,16.11
2017-06-14T06:53:54.794Z,16.04
2017-06-14T06:54:54.863Z,15.99
2017-06-14T06:55:54.467Z,15.86
2017-06-14T06:56:54.460Z,15.78
2017-06-14T06:57:54.469Z,15.63
2017-06-14T06:58:54.486Z,15.6
2017-06-14T06:59:54.130Z,15.52
2017-06-14T07:00:54.829Z,15.75
2017-06-14T07:01:54.470Z,16.73
2017-06-14T07:02:54.481Z,17.83
2017-06-14T07:03:54.796Z,19.02
2017-06-14T07:04:54.761Z,20
2017-06-14T07:05:54.114Z,20.97
2017-06-14T07:06:54.119Z,21.9
2017-06-14T07:07:54.204Z,22.55
2017-06-14T07:08:54.799Z,22.29
2017-06-14T07:09:54.808Z,21.86
2017-06-14T07:10:54.428Z,22.14
2017-06-14T07:11:54.428Z,22.14
2017-06-14T07:12:54.746Z,22.08
2017-06-14T07:13:54.960Z,21.93
2017-06-14T07:14:54.480Z,21.92
2017-06-14T07:15:54.824Z,22.07
2017-06-14T07:16:54.824Z,21.9
2017-06-14T07:17:54.422Z,21.82
2017-06-14T07:18:54.754Z,21.48
2017-06-14T07:19:54.761Z,20.97
2017-06-14T07:20:54.744Z,20.49
2017-06-14T07:21:54.749Z,20.32
2017-06-14T07:22:54.763Z,20.15
2017-06-14T07:23:54.744Z,20.22
2017-06-14T07:24:54.741Z,20.54
2017-06-14T07:25:54.425Z,21.21
2017-06-14T07:26:54.759Z,21.25
2017-06-14T07:27:54.426Z,21.46
2017-06-14T07:28:54.741Z,22.27
2017-06-14T07:29:54.425Z,22.94
2017-06-14T07:30:54.746Z,23.45
2017-06-14T07:31:54.453Z,23.4
2017-06-14T07:32:54.431Z,23.24
2017-06-14T07:33:54.745Z,22.81
2017-06-14T07:34:54.749Z,22.3
2017-06-14T07:35:54.424Z,21.92
2017-06-14T07:36:54.821Z,21.52
2017-06-14T07:37:54.461Z,21.4
2017-06-14T07:38:54.504Z,21.52
2017-06-14T07:39:54.756Z,21.74
2017-06-14T07:40:54.133Z,22.2
2017-06-14T07:41:54.433Z,22.63
2017-06-14T07:42:54.607Z,23.45
2017-06-14T07:43:54.795Z,23.97
2017-06-14T07:44:54.787Z,24.14
2017-06-14T07:45:54.450Z,24.4
2017-06-14T07:46:54.754Z,25
2017-06-14T07:47:54.438Z,25.24
2017-06-14T07:48:54.763Z,24.97
2017-06-14T07:49:54.539Z,24.64
2017-06-14T07:50:54.818Z,24.45
2017-06-14T07:51:54.798Z,24.15
2017-06-14T07:52:54.449Z,23.48
2017-06-14T07:53:54.480Z,23.1
2017-06-14T07:54:54.774Z,23.45
2017-06-14T07:55:54.875Z,23.75
2017-06-14T07:56:54.749Z,23.66
2017-06-14T07:57:54.586Z,23.26
2017-06-14T07:58:54.508Z,22.63
2017-06-14T07:59:54.460Z,22.04
2017-06-14T08:00:54.144Z,21.52
2017-06-14T08:01:55.187Z,21.68
2017-06-14T08:02:54.572Z,21.62
2017-06-14T08:03:54.587Z,21.83
2017-06-14T08:04:54.789Z,22.12
2017-06-14T08:05:54.471Z,22.54
2017-06-14T08:06:54.726Z,22.59
2017-06-14T08:07:54.965Z,22.63
2017-06-14T08:08:54.935Z,22.79
2017-06-14T08:09:54.592Z,23.38
2017-06-14T08:10:54.816Z,23.42
2017-06-14T08:11:54.157Z,23.28
2017-06-14T08:12:54.412Z,23.47
2017-06-14T08:13:54.945Z,23.74
2017-06-14T08:14:54.613Z,24.33
2017-06-14T08:15:54.932Z,24.7
2017-06-14T08:16:54.903Z,24.66
2017-06-14T08:17:54.522Z,24.9
2017-06-14T08:18:54.487Z,24.54
2017-06-14T08:19:54.768Z,24.12
2017-06-14T08:20:54.346Z,23.63
2017-06-14T08:21:54.941Z,23.16
2017-06-14T08:22:54.933Z,22.48
2017-06-14T08:23:54.811Z,21.96
2017-06-14T08:24:54.823Z,21.64
2017-06-14T08:25:54.952Z,21.4
2017-06-14T08:26:54.713Z,21.13
2017-06-14T08:27:54.628Z,20.83
2017-06-14T08:28:54.616Z,20.72
2017-06-14T08:29:54.490Z,20.85
2017-06-14T08:30:54.509Z,20.67
2017-06-14T08:31:54.693Z,20.46
2017-06-14T08:32:54.541Z,20.27
2017-06-14T08:33:54.490Z,20.05
2017-06-14T08:34:54.815Z,19.82
2017-06-14T08:35:55.467Z,19.6
2017-06-14T08:36:54.812Z,19.42
2017-06-14T08:37:54.810Z,19.23
2017-06-14T08:38:54.506Z,19.02
2017-06-14T08:39:54.515Z,18.91
2017-06-14T08:40:54.491Z,18.81
2017-06-14T08:41:54.846Z,19.07
2017-06-14T08:42:54.166Z,19.2
2017-06-14T08:43:54.498Z,19.24
2017-06-14T08:44:54.809Z,19.27
2017-06-14T08:45:54.805Z,19.24
2017-06-14T08:46:54.489Z,19.25
2017-06-14T08:47:54.493Z,19.28
2017-06-14T08:48:54.377Z,19.43
2017-06-14T08:49:54.482Z,19.42
2017-06-14T08:50:54.178Z,19.45
2017-06-14T08:51:54.803Z,19.5
2017-06-14T08:52:54.808Z,19.52
2017-06-14T08:53:54.803Z,19.5
2017-06-14T08:54:54.859Z,19.47
2017-06-14T08:55:54.810Z,19.68
2017-06-14T08:56:54.802Z,19.72
2017-06-14T08:57:54.742Z,19.97
2017-06-14T08:58:54.805Z,19.95
2017-06-14T08:59:54.803Z,19.97
2017-06-14T09:00:54.798Z,20.04
2017-06-14T09:01:54.156Z,19.74
2017-06-14T09:02:54.795Z,19.49
2017-06-14T09:03:54.791Z,19.06
2017-06-14T09:04:54.794Z,18.84
2017-06-14T09:05:54.807Z,18.63
2017-06-14T09:06:54.467Z,18.54
2017-06-14T09:07:54.470Z,18.39
2017-06-14T09:08:54.486Z,18.54
2017-06-14T09:09:54.788Z,18.72
2017-06-14T09:10:54.468Z,18.91
2017-06-14T09:11:54.788Z,19.2
2017-06-14T09:12:54.783Z,19.49
2017-06-14T09:13:54.480Z,19.68
2017-06-14T09:14:54.800Z,20.02
2017-06-14T09:15:54.462Z,20.05
2017-06-14T09:16:54.455Z,20.02
2017-06-14T09:17:54.787Z,20.12
2017-06-14T09:18:54.136Z,20.35
2017-06-14T09:19:54.793Z,20.44
2017-06-14T09:20:54.798Z,20.57
2017-06-14T09:21:54.777Z,20.67
2017-06-14T09:22:54.795Z,20.75
2017-06-14T09:23:54.130Z,20.91
2017-06-14T09:24:54.773Z,21.09
2017-06-14T09:25:54.793Z,21.18
2017-06-14T09:26:54.452Z,21.18
2017-06-14T09:27:54.464Z,21.06
2017-06-14T09:28:54.771Z,21.06
2017-06-14T09:29:54.771Z,21.16
2017-06-14T09:30:54.769Z,21.15
2017-06-14T09:31:54.768Z,21.08
2017-06-14T09:32:54.449Z,21.09
2017-06-14T09:33:54.446Z,21.15
2017-06-14T09:34:54.451Z,21.09
2017-06-14T09:35:54.444Z,21.04
2017-06-14T09:36:54.126Z,21.15
2017-06-14T09:37:54.471Z,21.12
2017-06-14T09:38:54.766Z,21.09
2017-06-14T09:39:54.447Z,20.98
2017-06-14T09:40:54.773Z,20.97
2017-06-14T09:41:54.123Z,21.13
2017-06-14T09:42:54.447Z,20.98
2017-06-14T09:43:54.765Z,21.01
2017-06-14T09:44:54.806Z,21.03
2017-06-14T09:45:54.763Z,21
2017-06-14T09:46:54.764Z,21.08
2017-06-14T09:47:54.767Z,21.04
2017-06-14T09:48:54.445Z,21.09
2017-06-14T09:49:54.445Z,21.06
2017-06-14T09:50:54.121Z,20.9
2017-06-14T09:51:54.805Z,20.58
2017-06-14T09:52:54.764Z,20.42
2017-06-14T09:53:54.441Z,20.51
2017-06-14T09:54:54.119Z,20.48
2017-06-14T09:55:54.441Z,20.61
2017-06-14T09:56:54.774Z,20.6
2017-06-14T09:57:54.117Z,20.6
2017-06-14T09:58:54.768Z,20.48
2017-06-14T09:59:54.478Z,20.56
2017-06-14T10:00:54.437Z,20.54
2017-06-14T10:01:54.115Z,20.54
2017-06-14T10:02:54.136Z,20.57
2017-06-14T10:03:54.454Z,20.44
2017-06-14T10:04:54.142Z,20.49
2017-06-14T10:05:54.124Z,20.35
2017-06-14T10:06:54.449Z,20.3
2017-06-14T10:07:54.132Z,20.44
2017-06-14T10:08:54.435Z,20.48
2017-06-14T10:09:54.760Z,20.58
2017-06-14T10:10:54.751Z,20.66
2017-06-14T10:11:54.120Z,20.79
2017-06-14T10:12:54.791Z,20.74
2017-06-14T10:13:54.120Z,20.91
2017-06-14T10:14:54.111Z,21
2017-06-14T10:15:54.446Z,21.04
2017-06-14T10:16:54.429Z,21.11
2017-06-14T10:17:54.431Z,21.12
2017-06-14T10:18:54.746Z,21.19
2017-06-14T10:19:54.745Z,21.08
2017-06-14T10:20:54.749Z,21
2017-06-14T10:21:54.744Z,20.93
2017-06-14T10:22:54.430Z,20.78
2017-06-14T10:23:54.766Z,20.74
2017-06-14T10:24:54.424Z,20.74
2017-06-14T10:25:54.107Z,20.71
2017-06-14T10:26:54.744Z,20.72
2017-06-14T10:27:54.419Z,20.76
2017-06-14T10:28:54.756Z,20.82
2017-06-14T10:29:54.741Z,20.83
2017-06-14T10:30:54.424Z,20.97
2017-06-14T10:31:54.423Z,21.11
2017-06-14T10:32:54.418Z,20.96
2017-06-14T10:33:54.423Z,20.97
2017-06-14T10:34:54.426Z,21.11
2017-06-14T10:35:54.095Z,21.18
2017-06-14T10:36:54.422Z,21.18
2017-06-14T10:37:54.753Z,21.18
2017-06-14T10:38:54.437Z,21.04
2017-06-14T10:39:54.423Z,21.15
2017-06-14T10:40:54.757Z,21.13
2017-06-14T10:41:54.419Z,21.21
2017-06-14T10:42:54.741Z,21.36
2017-06-14T10:43:54.417Z,21.3
2017-06-14T10:44:54.414Z,21.45
2017-06-14T10:45:54.757Z,21.34
2017-06-14T10:46:54.736Z,21.27
2017-06-14T10:47:54.418Z,21.04
2017-06-14T10:48:54.434Z,20.93
2017-06-14T10:49:54.733Z,20.96
2017-06-14T10:50:54.419Z,20.81
2017-06-14T10:51:54.412Z,20.97
2017-06-14T10:52:54.412Z,20.91
2017-06-14T10:53:54.416Z,20.91
2017-06-14T10:54:54.410Z,20.86
2017-06-14T10:55:54.134Z,20.85
2017-06-14T10:56:54.420Z,20.97
2017-06-14T10:57:54.411Z,21
2017-06-14T10:58:54.090Z,21.01
2017-06-14T10:59:54.416Z,21.11
2017-06-14T11:00:54.838Z,21.12
2017-06-14T11:01:54.772Z,21.16
2017-06-14T11:02:54.409Z,21.08
2017-06-14T11:03:54.407Z,21.01
2017-06-14T11:04:54.635Z,21.08
2017-06-14T11:05:54.806Z,21.06
2017-06-14T11:06:54.445Z,20.96
2017-06-14T11:07:54.092Z,21.08
2017-06-14T11:08:54.431Z,21.01
2017-06-14T11:09:54.412Z,21.04
2017-06-14T11:10:54.409Z,20.97
2017-06-14T11:11:54.728Z,21.03
2017-06-14T11:12:54.101Z,21
2017-06-14T11:13:54.099Z,20.96
2017-06-14T11:14:54.406Z,21.09
2017-06-14T11:15:54.417Z,21.18
2017-06-14T11:16:54.407Z,21.13
2017-06-14T11:17:54.728Z,21.06
2017-06-14T11:18:54.404Z,20.86
2017-06-14T11:19:54.725Z,20.93
2017-06-14T11:20:54.132Z,20.83
2017-06-14T11:21:54.405Z,20.81
2017-06-14T11:22:54.739Z,20.82
2017-06-14T11:23:54.411Z,20.86
2017-06-14T11:24:54.414Z,20.97
2017-06-14T11:25:54.740Z,21.12
2017-06-14T11:26:54.724Z,21.08
2017-06-14T11:27:54.404Z,21.06
2017-06-14T11:28:54.404Z,21.08
2017-06-14T11:29:54.728Z,21.08
2017-06-14T11:30:54.397Z,21.09
2017-06-14T11:31:54.722Z,21.12
2017-06-14T11:32:54.734Z,21.08
2017-06-14T11:33:54.400Z,21.12
2017-06-14T11:34:54.085Z,20.97
2017-06-14T11:35:54.400Z,20.98
2017-06-14T11:36:54.403Z,21.01
2017-06-14T11:37:54.401Z,20.98
2017-06-14T11:38:54.720Z,21.13
2017-06-14T11:39:54.722Z,21.18
2017-06-14T11:40:54.721Z,21.22
2017-06-14T11:41:54.398Z,21.25
2017-06-14T11:42:54.396Z,21.28
2017-06-14T11:43:54.402Z,21.28
2017-06-14T11:44:54.413Z,21.36
2017-06-14T11:45:54.399Z,21.4
2017-06-14T11:46:54.399Z,21.41
2017-06-14T11:47:54.405Z,21.37
2017-06-14T11:48:54.720Z,21.4
2017-06-14T11:49:54.078Z,21.37
2017-06-14T11:50:54.400Z,21.27
2017-06-14T11:51:54.407Z,21.25
2017-06-14T11:52:54.766Z,21.19
2017-06-14T11:53:54.078Z,21.15
2017-06-14T11:54:54.400Z,21.11
2017-06-14T11:55:54.397Z,20.97
2017-06-14T11:56:54.397Z,20.97
2017-06-14T11:57:54.397Z,20.9
2017-06-14T11:58:54.077Z,20.93
2017-06-14T11:59:54.075Z,20.96
2017-06-14T12:00:54.733Z,20.88
2017-06-14T12:01:54.397Z,20.96
2017-06-14T12:02:54.416Z,21.08
2017-06-14T12:03:54.400Z,21.13
2017-06-14T12:04:54.724Z,21.16
2017-06-14T12:05:54.394Z,21.23
2017-06-14T12:06:54.719Z,21.27
2017-06-14T12:07:54.728Z,21.21
2017-06-14T12:08:54.716Z,21.16
2017-06-14T12:09:54.393Z,21.27
2017-06-14T12:10:54.395Z,21.18
2017-06-14T12:11:54.394Z,21.28
2017-06-14T12:12:54.733Z,21.22
2017-06-14T12:13:54.394Z,21.25
2017-06-14T12:14:54.714Z,21.13
2017-06-14T12:15:54.411Z,21.21
2017-06-14T12:16:54.732Z,21.27
2017-06-14T12:17:54.404Z,21.23
2017-06-14T12:18:54.075Z,21.28
2017-06-14T12:19:54.406Z,21.23
2017-06-14T12:20:54.393Z,21.27
2017-06-14T12:21:54.714Z,21.33
2017-06-14T12:22:54.396Z,21.27
2017-06-14T12:23:54.716Z,21.19
2017-06-14T12:24:54.396Z,21.27
2017-06-14T12:25:54.393Z,21.23
2017-06-14T12:26:54.392Z,21.16
2017-06-14T12:27:54.401Z,21.19
2017-06-14T12:28:54.735Z,21.19
2017-06-14T12:29:54.072Z,21.19
2017-06-14T12:30:54.730Z,21.23
2017-06-14T12:31:54.093Z,21.33
2017-06-14T12:32:54.712Z,21.36
2017-06-14T12:33:54.731Z,21.38
2017-06-14T12:34:54.714Z,21.31
2017-06-14T12:35:54.400Z,21.28
2017-06-14T12:36:54.733Z,21.31
2017-06-14T12:37:54.388Z,21.37
2017-06-14T12:38:54.392Z,21.25
2017-06-14T12:39:54.093Z,21.36
2017-06-14T12:40:54.404Z,21.36
2017-06-14T12:41:54.404Z,21.4
2017-06-14T12:42:54.715Z,21.36
2017-06-14T12:43:54.397Z,21.41
2017-06-14T12:44:54.394Z,21.41
2017-06-14T12:45:54.728Z,21.45
2017-06-14T12:46:54.397Z,21.38
2017-06-14T12:47:54.415Z,21.37
2017-06-14T12:48:54.417Z,21.28
2017-06-14T12:49:54.760Z,21.27
2017-06-14T12:50:54.393Z,21.38
2017-06-14T12:51:54.718Z,21.4
2017-06-14T12:52:54.073Z,21.48
2017-06-14T12:53:54.714Z,21.41
2017-06-14T12:54:54.396Z,21.46
2017-06-14T12:55:54.719Z,21.46
2017-06-14T12:56:54.397Z,21.4
2017-06-14T12:57:54.396Z,21.43
2017-06-14T12:58:54.716Z,21.43
2017-06-14T12:59:54.733Z,21.4
2017-06-14T13:00:54.076Z,21.51
2017-06-14T13:01:54.400Z,21.48
2017-06-14T13:02:54.717Z,21.52
2017-06-14T13:03:54.075Z,21.61
2017-06-14T13:04:54.397Z,21.62
2017-06-14T13:05:54.396Z,21.77